createdAt,value
2019-03-27T00:01:42.887Z,49.16
2019-03-27T00:04:17.460Z,49.14
2019-03-27T00:06:51.885Z,49.17
2019-03-27T00:09:26.351Z,49.13
2019-03-27T00:12:00.765Z,49.13
2019-03-27T00:14:35.403Z,49.16
2019-03-27T00:17:09.814Z,49.11
2019-03-27T00:19:44.328Z,49.09
2019-03-27T00:22:19.028Z,49.09
2019-03-27T00:24:53.517Z,49.08
2019-03-27T00:27:29.090Z,49.06
2019-03-27T00:30:03.611Z,49.08
2019-03-27T00:32:39.287Z,49.09
2019-03-27T00:35:14.558Z,49.09
2019-03-27T00:37:49.129Z,49.11
2019-03-27T00:40:23.767Z,49.04
2019-03-27T00:42:58.478Z,49.08
2019-03-27T00:45:33.104Z,49.05
2019-03-27T00:48:07.750Z,49.03
2019-03-27T00:50:42.236Z,49.00
2019-03-27T00:53:16.930Z,49.08
2019-03-27T00:55:51.775Z,49.04
2019-03-27T00:58:26.190Z,49.04
2019-03-27T01:01:12.076Z,49.00
2019-03-27T01:03:46.940Z,48.96
2019-03-27T01:06:21.382Z,48.96
2019-03-27T01:08:56.267Z,48.98
2019-03-27T01:11:30.981Z,48.99
2019-03-27T01:14:05.705Z,48.99
2019-03-27T01:16:40.311Z,48.96
2019-03-27T01:19:14.711Z,48.96
2019-03-27T01:21:49.251Z,48.93
2019-03-27T01:24:23.823Z,48.96
2019-03-27T01:26:58.354Z,48.91
2019-03-27T01:29:32.878Z,48.93
2019-03-27T01:32:07.576Z,48.91
2019-03-27T01:34:42.105Z,48.97
2019-03-27T01:37:16.735Z,48.93
2019-03-27T01:39:51.280Z,48.95
2019-03-27T01:42:26.093Z,48.94
2019-03-27T01:45:00.714Z,48.94
2019-03-27T01:47:35.401Z,48.89
2019-03-27T01:50:11.138Z,49.02
2019-03-27T01:52:45.482Z,48.97
2019-03-27T01:55:20.062Z,49.06
2019-03-27T01:57:54.594Z,48.97
2019-03-27T02:00:28.950Z,49.03
2019-03-27T02:03:03.645Z,48.97
2019-03-27T02:05:38.056Z,48.88
2019-03-27T02:08:12.592Z,48.86
2019-03-27T02:10:47.356Z,48.71
2019-03-27T02:13:22.249Z,48.83
2019-03-27T02:16:06.879Z,48.82
2019-03-27T02:18:33.481Z,48.79
2019-03-27T02:21:08.392Z,48.72
2019-03-27T02:23:42.842Z,48.59
2019-03-27T02:26:17.571Z,48.53
2019-03-27T02:28:52.399Z,48.48
2019-03-27T02:31:26.833Z,48.44
2019-03-27T02:34:01.370Z,48.53
2019-03-27T02:36:35.803Z,48.55
2019-03-27T02:39:10.276Z,48.47
2019-03-27T02:41:45.160Z,48.50
2019-03-27T02:44:19.766Z,48.53
2019-03-27T02:46:54.590Z,48.62
2019-03-27T02:49:29.235Z,48.58
2019-03-27T02:52:04.030Z,48.55
2019-03-27T02:54:38.786Z,48.57
2019-03-27T02:57:13.385Z,48.63
2019-03-27T02:59:47.929Z,48.64
2019-03-27T03:02:22.700Z,48.58
2019-03-27T03:04:57.361Z,48.64
2019-03-27T03:07:31.963Z,48.66
2019-03-27T03:10:07.234Z,48.64
2019-03-27T03:12:41.855Z,48.68
2019-03-27T03:15:22.897Z,48.65
2019-03-27T03:17:57.297Z,48.78
2019-03-27T03:20:31.999Z,48.71
2019-03-27T03:23:06.505Z,48.75
2019-03-27T03:25:41.419Z,48.77
2019-03-27T03:28:16.082Z,48.76
2019-03-27T03:30:50.753Z,48.76
2019-03-27T03:33:26.415Z,48.83
2019-03-27T03:36:00.956Z,48.77
2019-03-27T03:38:35.410Z,48.83
2019-03-27T03:41:09.946Z,48.80
2019-03-27T03:43:44.603Z,48.79
2019-03-27T03:46:19.166Z,48.84
2019-03-27T03:48:53.891Z,48.84
2019-03-27T03:51:28.512Z,48.86
2019-03-27T03:54:03.828Z,48.88
2019-03-27T03:56:40.974Z,48.91
2019-03-27T03:59:16.857Z,48.89
2019-03-27T04:01:53.380Z,48.89
2019-03-27T04:04:28.228Z,48.89
2019-03-27T04:07:02.730Z,48.92
2019-03-27T04:09:37.288Z,48.95
2019-03-27T04:12:11.843Z,48.89
2019-03-27T04:14:46.592Z,48.90
2019-03-27T04:17:21.151Z,48.89
2019-03-27T04:19:55.544Z,48.89
2019-03-27T04:22:30.046Z,48.94
2019-03-27T04:25:04.544Z,48.92
2019-03-27T04:28:24.839Z,48.86
2019-03-27T04:30:59.315Z,48.87
2019-03-27T04:33:33.677Z,48.80
2019-03-27T04:36:08.457Z,48.88
2019-03-27T04:38:42.950Z,48.84
2019-03-27T04:41:17.537Z,48.76
2019-03-27T04:43:52.090Z,48.88
2019-03-27T04:46:26.739Z,48.91
2019-03-27T04:49:01.306Z,48.84
2019-03-27T04:51:35.898Z,48.74
2019-03-27T04:54:10.324Z,48.85
2019-03-27T04:56:44.677Z,48.76
2019-03-27T04:59:19.235Z,48.84
2019-03-27T05:01:54.206Z,48.84
2019-03-27T05:04:29.557Z,48.88
2019-03-27T05:07:04.004Z,48.80
2019-03-27T05:09:38.696Z,48.82
2019-03-27T05:12:13.197Z,48.81
2019-03-27T05:14:47.633Z,48.83
2019-03-27T05:17:22.082Z,48.74
2019-03-27T05:19:57.619Z,48.67
2019-03-27T05:22:32.300Z,48.70
2019-03-27T05:25:07.714Z,48.74
2019-03-27T05:27:42.255Z,48.73
2019-03-27T05:30:18.101Z,48.74
2019-03-27T05:32:52.661Z,48.59
2019-03-27T05:35:27.177Z,48.63
2019-03-27T05:38:02.039Z,48.59
2019-03-27T05:40:36.495Z,48.62
2019-03-27T05:43:11.152Z,48.62
2019-03-27T05:45:45.951Z,48.59
2019-03-27T05:48:20.661Z,48.55
2019-03-27T05:50:56.502Z,48.51
2019-03-27T05:53:32.118Z,48.54
2019-03-27T05:56:07.164Z,48.48
2019-03-27T05:58:41.729Z,48.33
2019-03-27T06:01:16.396Z,48.39
2019-03-27T06:03:51.883Z,48.41
2019-03-27T06:06:26.752Z,48.43
2019-03-27T06:09:01.240Z,48.22
2019-03-27T06:11:37.401Z,48.19
2019-03-27T06:14:12.093Z,48.26
2019-03-27T06:16:46.777Z,48.28
2019-03-27T06:19:21.268Z,48.23
2019-03-27T06:21:56.780Z,48.17
2019-03-27T06:24:32.674Z,48.19
2019-03-27T06:27:07.213Z,48.07
2019-03-27T06:29:41.933Z,48.17
2019-03-27T06:32:16.826Z,48.14
2019-03-27T06:34:51.423Z,48.12
2019-03-27T06:37:25.928Z,48.00
2019-03-27T06:40:02.163Z,48.09
2019-03-27T06:42:41.317Z,48.08
2019-03-27T06:45:17.776Z,48.02
2019-03-27T06:47:53.015Z,47.84
2019-03-27T06:50:28.000Z,47.85
2019-03-27T06:53:02.831Z,47.76
2019-03-27T06:55:37.810Z,47.62
2019-03-27T06:58:12.557Z,47.66
2019-03-27T07:00:47.164Z,47.48
2019-03-27T07:03:21.941Z,47.59
2019-03-27T07:05:56.910Z,47.47
2019-03-27T07:08:31.442Z,47.40
2019-03-27T07:11:06.517Z,47.40
2019-03-27T07:13:41.310Z,47.40
2019-03-27T07:16:16.085Z,47.38
2019-03-27T07:18:50.829Z,47.35
2019-03-27T07:21:25.534Z,47.32
2019-03-27T07:24:00.423Z,47.40
2019-03-27T07:26:35.196Z,47.36
2019-03-27T07:29:09.965Z,47.31
2019-03-27T07:31:44.570Z,47.18
2019-03-27T07:34:20.191Z,47.22
2019-03-27T07:36:56.315Z,47.11
2019-03-27T07:39:30.856Z,46.94
2019-03-27T07:42:05.345Z,47.00
2019-03-27T07:44:40.715Z,47.01
2019-03-27T07:47:15.576Z,46.96
2019-03-27T07:49:50.358Z,46.94
2019-03-27T07:52:24.973Z,46.86
2019-03-27T07:54:59.679Z,46.91
2019-03-27T07:57:34.346Z,46.83
2019-03-27T08:00:10.203Z,46.82
2019-03-27T08:02:46.221Z,46.85
2019-03-27T08:05:20.716Z,46.91
2019-03-27T08:07:55.575Z,46.93
2019-03-27T08:10:30.393Z,46.90
2019-03-27T08:13:05.121Z,46.90
2019-03-27T08:15:40.973Z,46.89
2019-03-27T08:18:15.807Z,46.70
2019-03-27T08:20:50.293Z,46.49
2019-03-27T08:23:24.652Z,46.63
2019-03-27T08:25:59.315Z,46.42
2019-03-27T08:28:33.834Z,46.38
2019-03-27T08:31:08.588Z,46.46
2019-03-27T08:33:43.662Z,46.50
2019-03-27T08:36:18.345Z,46.47
2019-03-27T08:38:53.153Z,46.36
2019-03-27T08:41:28.219Z,46.40
2019-03-27T08:44:04.135Z,46.31
2019-03-27T08:46:39.903Z,46.38
2019-03-27T08:49:21.661Z,46.33
2019-03-27T08:51:50.534Z,46.31
2019-03-27T08:54:25.228Z,46.21
2019-03-27T08:57:00.306Z,46.17
2019-03-27T08:59:34.930Z,46.08
2019-03-27T09:02:09.642Z,46.12
2019-03-27T09:04:44.376Z,46.15
2019-03-27T09:07:18.933Z,45.98
2019-03-27T09:09:53.514Z,45.91
2019-03-27T09:12:28.142Z,45.93
2019-03-27T09:15:02.868Z,45.86
2019-03-27T09:17:37.650Z,45.77
2019-03-27T09:20:13.006Z,45.81
2019-03-27T09:22:47.669Z,45.77
2019-03-27T09:25:22.212Z,45.82
2019-03-27T09:27:56.812Z,45.73
2019-03-27T09:30:31.527Z,45.78
2019-03-27T09:33:06.365Z,45.67
2019-03-27T09:35:41.521Z,45.80
2019-03-27T09:38:16.654Z,45.74
2019-03-27T09:40:51.471Z,45.81
2019-03-27T09:43:26.489Z,45.96
2019-03-27T09:46:01.008Z,45.99
2019-03-27T09:48:35.469Z,45.93
2019-03-27T09:51:10.143Z,45.87
2019-03-27T09:53:44.981Z,45.81
2019-03-27T09:56:19.813Z,45.75
2019-03-27T09:58:54.542Z,45.79
2019-03-27T10:01:29.214Z,45.77
2019-03-27T10:04:03.708Z,45.87
2019-03-27T10:06:38.367Z,45.73
2019-03-27T10:09:13.678Z,45.71
2019-03-27T10:11:48.217Z,45.77
2019-03-27T10:14:22.791Z,45.70
2019-03-27T10:16:57.582Z,45.67
2019-03-27T10:19:32.455Z,45.69
2019-03-27T10:22:07.354Z,45.68
2019-03-27T10:24:44.452Z,45.72
2019-03-27T10:27:18.744Z,45.73
2019-03-27T10:29:53.374Z,45.65
2019-03-27T10:32:28.290Z,45.69
2019-03-27T10:35:03.549Z,45.63
2019-03-27T10:37:38.386Z,45.78
2019-03-27T10:40:12.935Z,45.58
2019-03-27T10:42:47.675Z,45.54
2019-03-27T10:45:22.329Z,45.54
2019-03-27T10:47:56.905Z,45.64
2019-03-27T10:50:31.571Z,45.48
2019-03-27T10:53:06.254Z,45.54
2019-03-27T10:55:40.775Z,45.51
2019-03-27T10:58:15.502Z,45.44
2019-03-27T11:00:50.217Z,45.62
2019-03-27T11:03:24.561Z,45.65
2019-03-27T11:05:59.085Z,45.79
2019-03-27T11:08:33.613Z,45.75
2019-03-27T11:11:08.190Z,45.87
2019-03-27T11:13:42.741Z,45.83
2019-03-27T11:16:17.436Z,45.82
2019-03-27T11:18:52.229Z,46.07
2019-03-27T11:21:26.958Z,46.01
2019-03-27T11:24:01.751Z,45.90
2019-03-27T11:26:37.532Z,46.09
2019-03-27T11:29:12.552Z,46.02
2019-03-27T11:31:49.105Z,46.03
2019-03-27T11:34:23.812Z,46.22
2019-03-27T11:36:58.299Z,46.25
2019-03-27T11:39:32.986Z,46.26
2019-03-27T11:42:07.973Z,46.22
2019-03-27T11:44:43.183Z,46.31
2019-03-27T11:47:18.027Z,46.30
2019-03-27T11:49:52.761Z,46.26
2019-03-27T11:52:29.663Z,46.35
2019-03-27T11:55:04.158Z,46.50
2019-03-27T11:57:38.845Z,46.56
2019-03-27T12:00:14.495Z,46.58
2019-03-27T12:02:49.254Z,46.61
2019-03-27T12:05:24.380Z,46.65
2019-03-27T12:07:58.862Z,46.73
2019-03-27T12:10:33.679Z,46.80
2019-03-27T12:13:08.686Z,46.84
2019-03-27T12:15:47.499Z,46.95
2019-03-27T12:18:22.274Z,47.08
2019-03-27T12:20:59.788Z,47.06
2019-03-27T12:23:34.734Z,47.19
2019-03-27T12:26:09.470Z,47.17
2019-03-27T12:28:44.104Z,47.29
2019-03-27T12:31:18.625Z,47.31
2019-03-27T12:33:53.345Z,47.35
2019-03-27T12:36:27.982Z,47.45
2019-03-27T12:39:02.663Z,47.50
2019-03-27T12:41:37.712Z,47.56
2019-03-27T12:44:12.484Z,47.57
2019-03-27T12:46:47.030Z,47.67
2019-03-27T12:49:21.365Z,47.74
2019-03-27T12:51:56.052Z,47.84
2019-03-27T12:54:30.621Z,47.91
2019-03-27T12:57:05.151Z,47.96
2019-03-27T12:59:40.076Z,48.01
2019-03-27T13:02:14.802Z,48.04
2019-03-27T13:04:49.398Z,48.09
2019-03-27T13:07:23.963Z,48.18
2019-03-27T13:09:58.499Z,48.22
2019-03-27T13:12:32.990Z,48.19
2019-03-27T13:15:07.959Z,48.23
2019-03-27T13:17:42.538Z,48.29
2019-03-27T13:20:17.596Z,48.40
2019-03-27T13:22:52.277Z,48.35
2019-03-27T13:25:26.723Z,48.29
2019-03-27T13:28:01.265Z,48.17
2019-03-27T13:30:36.012Z,48.24
2019-03-27T13:33:10.561Z,48.24
2019-03-27T13:35:45.074Z,48.35
2019-03-27T13:38:20.006Z,48.34
2019-03-27T13:40:54.799Z,48.38
2019-03-27T13:43:29.341Z,48.41
2019-03-27T13:46:04.093Z,48.35
2019-03-27T13:48:38.824Z,48.22
2019-03-27T13:51:13.380Z,47.92
2019-03-27T13:53:48.282Z,48.24
2019-03-27T13:56:22.960Z,48.43
2019-03-27T13:58:57.599Z,48.32
2019-03-27T14:01:32.186Z,48.37
2019-03-27T14:04:06.926Z,48.57
2019-03-27T14:06:44.567Z,48.65
2019-03-27T14:09:17.854Z,48.55
2019-03-27T14:11:52.450Z,48.66
2019-03-27T14:14:27.016Z,48.67
2019-03-27T14:17:01.679Z,48.72
2019-03-27T14:19:36.312Z,48.78
2019-03-27T14:22:11.026Z,48.78
2019-03-27T14:24:45.433Z,48.80
2019-03-27T14:27:19.923Z,48.85
2019-03-27T14:29:54.649Z,48.92
2019-03-27T14:32:29.528Z,48.88
2019-03-27T14:35:04.264Z,48.76
2019-03-27T14:37:39.265Z,48.32
2019-03-27T14:40:13.925Z,48.26
2019-03-27T14:42:48.759Z,48.62
2019-03-27T14:45:23.354Z,48.68
2019-03-27T14:47:58.190Z,48.71
2019-03-27T14:50:32.787Z,48.76
2019-03-27T14:53:07.400Z,48.55
2019-03-27T14:55:41.912Z,48.79
2019-03-27T14:58:16.575Z,49.03
2019-03-27T15:00:51.273Z,49.23
2019-03-27T15:03:25.670Z,49.26
2019-03-27T15:06:00.333Z,49.34
2019-03-27T15:08:35.096Z,49.34
2019-03-27T15:11:09.912Z,49.39
2019-03-27T15:13:44.457Z,49.46
2019-03-27T15:16:19.129Z,48.85
2019-03-27T15:18:53.405Z,48.83
2019-03-27T15:21:27.683Z,48.92
2019-03-27T15:24:02.301Z,48.87
2019-03-27T15:26:36.721Z,48.72
2019-03-27T15:29:11.381Z,48.89
2019-03-27T15:31:46.031Z,49.20
2019-03-27T15:34:20.798Z,49.41
2019-03-27T15:36:55.202Z,49.20
2019-03-27T15:39:30.118Z,49.39
2019-03-27T15:42:04.761Z,49.35
2019-03-27T15:44:39.226Z,49.33
2019-03-27T15:47:13.687Z,49.29
2019-03-27T15:49:48.047Z,49.15
2019-03-27T15:52:35.426Z,49.33
2019-03-27T15:54:58.753Z,49.21
2019-03-27T15:57:33.131Z,49.27
2019-03-27T16:00:07.898Z,49.20
2019-03-27T16:02:42.703Z,49.16
2019-03-27T16:05:17.168Z,49.15
2019-03-27T16:07:52.077Z,48.95
2019-03-27T16:10:26.807Z,49.12
2019-03-27T16:13:01.461Z,49.15
2019-03-27T16:15:37.182Z,49.20
2019-03-27T16:18:11.896Z,49.09
2019-03-27T16:20:46.567Z,49.13
2019-03-27T16:23:21.222Z,49.12
2019-03-27T16:25:56.016Z,49.06
2019-03-27T16:28:30.456Z,49.01
2019-03-27T16:31:05.264Z,49.11
2019-03-27T16:33:39.900Z,48.90
2019-03-27T16:36:14.390Z,49.07
2019-03-27T16:38:48.820Z,49.06
2019-03-27T16:41:23.451Z,48.95
2019-03-27T16:43:58.063Z,48.71
2019-03-27T16:46:32.978Z,48.86
2019-03-27T16:49:07.975Z,48.93
2019-03-27T16:51:42.469Z,49.07
2019-03-27T16:54:16.965Z,49.01
2019-03-27T16:56:51.462Z,48.97
2019-03-27T16:59:26.010Z,49.05
2019-03-27T17:02:01.204Z,49.01
2019-03-27T17:04:35.578Z,49.01
2019-03-27T17:07:10.146Z,49.09
2019-03-27T17:09:44.560Z,49.03
2019-03-27T17:12:19.235Z,49.08
2019-03-27T17:14:53.846Z,49.02
2019-03-27T17:17:28.347Z,49.03
2019-03-27T17:20:02.966Z,49.03
2019-03-27T17:22:37.441Z,49.03
2019-03-27T17:25:12.152Z,49.04
2019-03-27T17:27:46.681Z,49.01
2019-03-27T17:30:21.691Z,49.03
2019-03-27T17:32:56.310Z,49.02
2019-03-27T17:35:30.774Z,48.97
2019-03-27T17:38:05.194Z,49.01
2019-03-27T17:40:39.787Z,49.10
2019-03-27T17:43:14.184Z,49.02
2019-03-27T17:45:48.613Z,49.05
2019-03-27T17:48:22.999Z,49.08
2019-03-27T17:50:57.669Z,49.06
2019-03-27T17:53:32.345Z,49.14
2019-03-27T17:56:07.078Z,49.13
2019-03-27T17:58:42.190Z,49.07
2019-03-27T18:01:16.528Z,49.18
2019-03-27T18:03:51.038Z,49.19
2019-03-27T18:06:25.340Z,49.20
2019-03-27T18:08:59.995Z,49.17
2019-03-27T18:11:34.430Z,49.11
2019-03-27T18:14:08.962Z,49.14
2019-03-27T18:16:44.251Z,49.15
2019-03-27T18:19:18.699Z,49.06
2019-03-27T18:22:06.690Z,49.15
2019-03-27T18:24:29.515Z,49.17
2019-03-27T18:27:04.274Z,49.17
2019-03-27T18:29:39.057Z,49.26
2019-03-27T18:32:14.186Z,49.29
2019-03-27T18:34:49.501Z,49.31
2019-03-27T18:37:24.005Z,49.24
2019-03-27T18:39:58.521Z,49.20
2019-03-27T18:42:33.289Z,49.30
2019-03-27T18:45:08.067Z,49.22
2019-03-27T18:47:42.731Z,49.23
2019-03-27T18:50:17.271Z,49.32
2019-03-27T18:52:51.987Z,49.19
2019-03-27T18:55:27.195Z,49.19
2019-03-27T18:58:01.799Z,49.25
2019-03-27T19:00:36.483Z,49.27
2019-03-27T19:03:11.055Z,49.22
2019-03-27T19:05:45.532Z,49.25
2019-03-27T19:08:20.009Z,49.28
2019-03-27T19:10:55.518Z,49.20
2019-03-27T19:13:30.016Z,49.18
2019-03-27T19:16:04.372Z,49.28
2019-03-27T19:18:38.769Z,49.21
2019-03-27T19:21:13.398Z,49.27
2019-03-27T19:23:47.936Z,49.20
2019-03-27T19:26:22.485Z,49.22
2019-03-27T19:28:56.771Z,49.23
2019-03-27T19:31:31.326Z,49.28
2019-03-27T19:34:06.004Z,49.12
2019-03-27T19:36:40.666Z,49.15
2019-03-27T19:39:15.243Z,49.13
2019-03-27T19:41:49.914Z,49.03
2019-03-27T19:44:24.420Z,49.06
2019-03-27T19:47:00.687Z,49.09
2019-03-27T19:49:35.029Z,49.10
2019-03-27T19:52:09.611Z,48.99
2019-03-27T19:54:44.160Z,48.94
2019-03-27T19:57:18.665Z,48.94
2019-03-27T19:59:53.957Z,48.91
2019-03-27T20:02:28.475Z,48.88
2019-03-27T20:05:03.020Z,48.83
2019-03-27T20:07:37.898Z,48.88
2019-03-27T20:10:13.172Z,48.87
2019-03-27T20:12:47.620Z,48.87
2019-03-27T20:15:22.293Z,48.84
2019-03-27T20:17:56.901Z,48.84
2019-03-27T20:20:31.630Z,48.86
2019-03-27T20:23:14.711Z,48.88
2019-03-27T20:25:42.140Z,48.88
2019-03-27T20:28:16.512Z,48.87
2019-03-27T20:30:51.170Z,48.79
2019-03-27T20:33:25.635Z,48.91
2019-03-27T20:35:59.895Z,48.82
2019-03-27T20:38:34.458Z,48.87
2019-03-27T20:41:08.735Z,48.86
2019-03-27T20:43:45.676Z,48.81
2019-03-27T20:46:25.448Z,48.78
2019-03-27T20:48:56.376Z,48.83
2019-03-27T20:51:30.813Z,48.80
2019-03-27T20:54:06.010Z,48.75
2019-03-27T20:56:40.604Z,48.79
2019-03-27T20:59:18.239Z,48.76
2019-03-27T21:01:51.829Z,48.70
2019-03-27T21:04:26.256Z,48.78
2019-03-27T21:07:00.857Z,48.76
2019-03-27T21:09:35.264Z,48.71
2019-03-27T21:12:09.919Z,48.80
2019-03-27T21:14:44.245Z,48.74
2019-03-27T21:17:18.657Z,48.76
2019-03-27T21:19:53.242Z,48.76
2019-03-27T21:22:27.948Z,48.75
2019-03-27T21:25:09.007Z,48.72
2019-03-27T21:27:39.238Z,48.75
2019-03-27T21:30:14.206Z,48.72
2019-03-27T21:32:48.646Z,48.68
2019-03-27T21:35:23.118Z,48.79
2019-03-27T21:37:57.755Z,48.81
2019-03-27T21:40:32.148Z,48.76
2019-03-27T21:43:06.635Z,48.74
2019-03-27T21:45:41.423Z,48.80
2019-03-27T21:48:15.804Z,48.76
2019-03-27T21:50:50.575Z,48.71
2019-03-27T21:53:25.299Z,48.71
2019-03-27T21:56:00.509Z,48.70
2019-03-27T21:58:34.870Z,48.76
2019-03-27T22:01:09.800Z,48.79
2019-03-27T22:03:44.258Z,48.73
2019-03-27T22:06:18.971Z,48.73
2019-03-27T22:08:53.511Z,48.72
2019-03-27T22:11:28.873Z,48.82
2019-03-27T22:14:03.329Z,48.71
2019-03-27T22:16:37.896Z,48.69
2019-03-27T22:19:12.309Z,48.69
2019-03-27T22:21:46.734Z,48.68
2019-03-27T22:24:21.317Z,48.72
2019-03-27T22:26:54.809Z,48.70
2019-03-27T22:29:29.430Z,48.73
2019-03-27T22:32:03.820Z,48.74
2019-03-27T22:34:38.454Z,48.72
2019-03-27T22:37:12.977Z,48.79
2019-03-27T22:39:48.044Z,48.77
2019-03-27T22:42:22.819Z,48.76
2019-03-27T22:44:57.667Z,48.78
2019-03-27T22:47:32.377Z,48.76
2019-03-27T22:50:08.398Z,48.75
2019-03-27T22:52:43.231Z,48.83
2019-03-27T22:55:17.926Z,48.80
2019-03-27T22:57:52.518Z,48.77
2019-03-27T23:00:47.317Z,48.75
2019-03-27T23:03:23.444Z,48.80
2019-03-27T23:05:58.234Z,48.78
2019-03-27T23:08:32.698Z,48.79
2019-03-27T23:11:07.440Z,48.79
2019-03-27T23:13:42.127Z,48.76
2019-03-27T23:16:16.973Z,48.74
2019-03-27T23:18:51.595Z,48.76
2019-03-27T23:21:25.998Z,48.71
2019-03-27T23:24:00.717Z,48.73
2019-03-27T23:26:35.059Z,48.77
2019-03-27T23:29:09.770Z,48.68
2019-03-27T23:31:44.149Z,48.76
2019-03-27T23:34:19.805Z,48.76
2019-03-27T23:36:54.155Z,48.76
2019-03-27T23:39:28.685Z,48.79
2019-03-27T23:42:03.371Z,48.75
2019-03-27T23:44:37.908Z,48.76
2019-03-27T23:47:12.558Z,48.71
2019-03-27T23:49:46.985Z,48.76
2019-03-27T23:52:21.373Z,48.82
2019-03-27T23:54:55.897Z,48.76
2019-03-27T23:57:30.425Z,48.77
